MMCP/CPE METAR and TAF weather

Enter ICAO airport designator
Station Type Date Time Source
MMCP METAR 2021/04/13 07:49 UTC NOAA

MMCP 130749Z 13012KT 7SM SKC 27/23 A2980


Station Type Date Time Source
MMCP Decoded METAR 2021/04/13 07:49 UTC NOAA

Campeche, Camp., Mexico (MMCP) 19-51N 090-33W
Apr 13, 2021 - 03:49 AM EDT / 2021.04.13 0749 UTC
Wind: from the SE (130 degrees) at 14 MPH (12 KT):0
Visibility: 7 mile(s):0
Sky conditions: clear
Temperature: 80 F (27 C)
Dew Point: 73 F (23 C)
Relative Humidity: 78%
Pressure (altimeter): 29.8 in. Hg (1009 hPa)
ob: MMCP 130749Z 13012KT 7SM SKC 27/23 A2980
cycle: 8

Station Type Date Time Source
MMCP TAF 2021/04/13 06:58 UTC NOAA

TAF MMCP 130451Z 1306/1406 00000KT 6SM HZ SCT300
FM131800 03010KT 6SM HZ SCT030
FM140200 03005KT 6SM HZ SKC

Example: see airport list